Tim Quigg — WDB6570 — position and weather

sailwx.info

Track history (hours):
 
Tides and Currents Weather Stations Pressure Air Temp Water Temp Dewpoint Dewpoint Depression Visibility Wind Speed Wind Dir Waves Ship Positions

Tim Quigg

Owner: Harley Marine Services, Inc, Seattle, WA. More information available from US FCC via Universal Licensing System and Coast Guard Vessel Documentation Center.

Last reported at 2014-Oct-31 10:33 UTC. Time now 2014-Oct-31 10:51 UTC.
Position N 33°44' W 118°12'.

; draft 7.5 m.

Type: Tug. MMSI: 366926740.

Date/timePositionNaut miles runAvg speedWind from/ knotsBaromVisibWave heightAir tempDewpointWater temp
2014-Oct-31 10:33N 33°44' W 118°12'3 1.3
2014-Oct-31 08:26N 33°44' W 118°16'0 0.0
2014-Oct-31 07:26N 33°44' W 118°16'2 1.7
2014-Oct-31 06:32N 33°43' W 118°14'0 0.2
2014-Oct-31 04:25N 33°43' W 118°15'0 0.1
2014-Oct-31 01:27N 33°43' W 118°14'3 2.9
2014-Oct-31 00:34N 33°45' W 118°16'1 0.5
2014-Oct-30 23:33N 33°45' W 118°16'1 0.8
2014-Oct-30 22:33N 33°45' W 118°16'0 0.2
2014-Oct-30 21:33N 33°45' W 118°17'0 0.0
2014-Oct-30 20:33N 33°45' W 118°17'0 0.0
2014-Oct-30 19:33N 33°45' W 118°17'0 0.2
2014-Oct-30 18:34N 33°45' W 118°17'1 1.1
2014-Oct-30 17:33N 33°44' W 118°16'0 0.0
2014-Oct-30 16:33N 33°44' W 118°16'0 0.0
2014-Oct-30 15:33N 33°44' W 118°16'1 1.1
2014-Oct-30 14:33N 33°45' W 118°17'1 1.0
2014-Oct-30 13:33N 33°44' W 118°16'0 0.1
2014-Oct-30 12:33N 33°44' W 118°16'0 0.0
2014-Oct-30 11:33N 33°44' W 118°16'0 0.0
2014-Oct-30 10:33N 33°44' W 118°16'0 0.0
2014-Oct-30 09:33N 33°44' W 118°16'0 0.0
2014-Oct-30 08:33N 33°44' W 118°16'0 0.0
2014-Oct-30 07:30N 33°44' W 118°16'2 2.6
2014-Oct-30 06:34N 33°45' W 118°13'1 1.0
2014-Oct-30 05:33N 33°44' W 118°13'2 2.1
2014-Oct-30 04:31N 33°44' W 118°16'0 0.0
2014-Oct-30 03:33N 33°44' W 118°16'0 0.0
2014-Oct-30 02:33N 33°44' W 118°16'2 1.7
2014-Oct-30 01:33N 33°46' W 118°15'3 3.0
2014-Oct-30 00:33N 33°43' W 118°15'1 1.3
2014-Oct-29 23:31N 33°44' W 118°16'0 0.2
2014-Oct-29 21:33N 33°44' W 118°15'2 1.9
2014-Oct-29 20:33N 33°46' W 118°16'3 2.6
2014-Oct-29 19:33N 33°43' W 118°16'2 2.2
2014-Oct-29 18:33N 33°44' W 118°14'2 1.7
2014-Oct-29 17:33N 33°44' W 118°16'0 0.0
2014-Oct-29 16:29N 33°44' W 118°16'0 0.0
2014-Oct-29 15:26N 33°44' W 118°16'1 0.6
2014-Oct-29 14:34N 33°43' W 118°16'2 2.1
2014-Oct-29 13:33N 33°45' W 118°16'3 2.7
2014-Oct-29 12:33N 33°43' W 118°15'1 1.1
2014-Oct-29 11:33N 33°43' W 118°16'3 2.6
2014-Oct-29 10:33N 33°45' W 118°14'2 1.9
2014-Oct-29 09:33N 33°44' W 118°12'3 2.8
2014-Oct-29 08:29N 33°44' W 118°16'1 0.8
2014-Oct-29 07:33N 33°43' W 118°16'4 4.0
2014-Oct-29 06:33N 33°46' W 118°13'2 2.0
2014-Oct-29 05:33N 33°44' W 118°13'2 1.7
2014-Oct-29 04:18N 33°44' W 118°16'0 0.0
2014-Oct-29 03:33N 33°44' W 118°16'0 0.0
2014-Oct-29 02:33N 33°44' W 118°16'2 1.7
2014-Oct-29 01:33N 33°43' W 118°14'2 1.9
2014-Oct-29 00:24N 33°45' W 118°12'0 0.0
2014-Oct-28 23:32N 33°45' W 118°12'0 0.0
2014-Oct-28 22:33N 33°45' W 118°12'1 1.3
2014-Oct-28 21:33N 33°46' W 118°13'1 1.3
2014-Oct-28 20:33N 33°45' W 118°13'0 0.0
2014-Oct-28 19:33N 33°45' W 118°13'0 0.0
2014-Oct-28 18:33N 33°45' W 118°13'0 0.0
2014-Oct-28 17:33N 33°45' W 118°13'3 3.0
2014-Oct-28 16:33N 33°43' W 118°16'1 0.6
2014-Oct-28 15:12N 33°44' W 118°16'0 0.0
2014-Oct-28 14:33N 33°44' W 118°16'0 0.3
2014-Oct-28 13:33N 33°44' W 118°16'2 2.1
2014-Oct-28 12:33N 33°46' W 118°17'3 3.2
2014-Oct-28 11:33N 33°43' W 118°15'3 2.4
2014-Oct-28 10:18N 33°45' W 118°12'3 3.1
2014-Oct-28 09:20N 33°44' W 118°16'2 2.3
2014-Oct-28 08:31N 33°43' W 118°13'3 2.8
2014-Oct-28 07:33N 33°46' W 118°13'0 0.0
2014-Oct-28 06:33N 33°46' W 118°13'0 0.4
2014-Oct-28 05:33N 33°46' W 118°13'3 2.4
2014-Oct-28 04:20N 33°44' W 118°16'0 0.0
2014-Oct-28 03:29N 33°44' W 118°16'0 0.0
2014-Oct-28 02:32N 33°44' W 118°16'2 2.3
2014-Oct-28 01:33N 33°44' W 118°13'2 2.0
2014-Oct-28 00:25N 33°44' W 118°16'0 0.0
2014-Oct-27 23:13N 33°44' W 118°16'2 1.0
2014-Oct-27 21:33N 33°43' W 118°14'2 1.9
2014-Oct-27 20:33N 33°45' W 118°13'3 2.8
2014-Oct-27 19:33N 33°44' W 118°16'0 0.0
2014-Oct-27 18:33N 33°44' W 118°16'1 0.9
2014-Oct-27 17:28N 33°45' W 118°16'1 0.9
2014-Oct-27 16:32N 33°44' W 118°16'5 5.1
2014-Oct-27 15:33N 33°44' W 118°10'4 3.7
2014-Oct-27 14:34N 33°44' W 118°06'3 2.6
2014-Oct-27 13:33N 33°44' W 118°09'2 1.7
2014-Oct-27 12:33N 33°44' W 118°11'0 0.0
2014-Oct-27 11:33N 33°44' W 118°11'3 2.8
2014-Oct-27 10:33N 33°46' W 118°13'1 1.2
2014-Oct-27 09:33N 33°46' W 118°15'0 0.4
2014-Oct-27 08:33N 33°46' W 118°15'3 2.5
2014-Oct-27 07:22N 33°43' W 118°15'3 1.9
2014-Oct-27 05:33N 33°46' W 118°13'0 0.2
2014-Oct-27 04:34N 33°46' W 118°13'3 2.9
2014-Oct-27 03:33N 33°44' W 118°16'2 1.6
2014-Oct-27 02:33N 33°45' W 118°16'3 2.6
2014-Oct-27 01:33N 33°43' W 118°15'3 2.8
2014-Oct-27 00:33N 33°46' W 118°16'0 0.3
2014-Oct-26 23:33N 33°45' W 118°16'1 1.5
2014-Oct-26 22:33N 33°44' W 118°16'2 1.7
2014-Oct-26 21:33N 33°45' W 118°16'0 0.2
2014-Oct-26 20:33N 33°46' W 118°16'0 0.0
2014-Oct-26 19:33N 33°46' W 118°16'0 0.0
2014-Oct-26 18:33N 33°46' W 118°16'1 1.2
2014-Oct-26 17:33N 33°45' W 118°16'3 0.9
2014-Oct-26 14:33N 33°44' W 118°14'2 1.9
2014-Oct-26 13:33N 33°44' W 118°12'0 0.0
2014-Oct-26 12:33N 33°44' W 118°12'0 0.0
2014-Oct-26 11:33N 33°44' W 118°12'0 0.0
2014-Oct-26 10:33N 33°44' W 118°12'0 0.4
2014-Oct-26 09:33N 33°45' W 118°12'0 0.5
2014-Oct-26 08:33N 33°44' W 118°12'0 0.0
2014-Oct-26 07:30N 33°44' W 118°12'0 0.0
2014-Oct-26 06:33N 33°44' W 118°12'3 2.7
2014-Oct-26 05:32N 33°43' W 118°14'2 2.3
2014-Oct-26 04:28N 33°45' W 118°17'1 1.5
2014-Oct-26 03:33N 33°46' W 118°15'3 3.0
2014-Oct-26 02:33N 33°43' W 118°15'1 1.4
2014-Oct-26 01:32N 33°44' W 118°16'0 0.0
2014-Oct-26 00:33N 33°44' W 118°16'0 0.2
2014-Oct-25 23:33N 33°44' W 118°16'0 0.0
2014-Oct-25 22:33N 33°44' W 118°16'3 2.8
2014-Oct-25 21:33N 33°44' W 118°12'0 0.4
2014-Oct-25 20:33N 33°44' W 118°12'1 0.8
2014-Oct-25 19:33N 33°43' W 118°13'2 2.3
2014-Oct-25 18:33N 33°44' W 118°16'0 0.0
2014-Oct-25 17:33N 33°44' W 118°16'0 0.0
2014-Oct-25 16:33N 33°44' W 118°16'2 2.0
2014-Oct-25 15:33N 33°46' W 118°16'3 2.7
2014-Oct-25 14:33N 33°43' W 118°16'2 2.5
2014-Oct-25 13:33N 33°45' W 118°14'3 2.6
2014-Oct-25 12:33N 33°44' W 118°11'2 1.6
2014-Oct-25 11:33N 33°45' W 118°12'1 1.2
2014-Oct-25 10:33N 33°44' W 118°12'0 0.0
2014-Oct-25 09:33N 33°44' W 118°12'0 0.0
2014-Oct-25 08:33N 33°44' W 118°12'0 0.0
2014-Oct-25 07:33N 33°44' W 118°12'0 0.1
2014-Oct-25 06:33N 33°44' W 118°12'1 0.9
2014-Oct-25 05:33N 33°45' W 118°12'3 2.6
2014-Oct-25 04:33N 33°43' W 118°14'1 1.5
2014-Oct-25 03:33N 33°44' W 118°16'0 0.0
2014-Oct-25 02:33N 33°44' W 118°16'0 0.0
2014-Oct-25 01:33N 33°44' W 118°16'0 0.0
2014-Oct-25 00:33N 33°44' W 118°16'0 0.0
2014-Oct-24 23:33N 33°44' W 118°16'2 2.2
2014-Oct-24 22:33N 33°44' W 118°13'1 1.1
2014-Oct-24 21:33N 33°45' W 118°13'4 3.7
2014-Oct-24 20:33N 33°45' W 118°17'2 1.8
2014-Oct-24 19:33N 33°44' W 118°16'4 3.5
2014-Oct-24 18:33N 33°40' W 118°14'5 4.5
2014-Oct-24 17:33N 33°45' W 118°12'3 3.0
2014-Oct-24 16:33N 33°44' W 118°16'0 0.2
2014-Oct-24 15:33N 33°44' W 118°16'2 2.3
2014-Oct-24 14:33N 33°45' W 118°13'0 0.4
2014-Oct-24 13:33N 33°44' W 118°13'2 2.3
2014-Oct-24 12:33N 33°43' W 118°15'1 1.0
2014-Oct-24 11:33N 33°43' W 118°16'1 1.2
2014-Oct-24 10:33N 33°44' W 118°17'2 1.7
2014-Oct-24 09:33N 33°46' W 118°15'2 2.4
2014-Oct-24 08:33N 33°45' W 118°12'1 1.2
2014-Oct-24 07:34N 33°44' W 118°13'2 2.2
2014-Oct-24 06:33N 33°44' W 118°16'0 0.0
2014-Oct-24 05:33N 33°44' W 118°16'0 0.0
2014-Oct-24 04:33N 33°44' W 118°16'0 0.0
2014-Oct-24 03:33N 33°44' W 118°16'0 0.0
2014-Oct-24 02:33N 33°44' W 118°16'1 1.3
2014-Oct-24 01:33N 33°43' W 118°15'3 2.8
2014-Oct-24 00:33N 33°44' W 118°12'0 0.0
2014-Oct-23 23:33N 33°44' W 118°12'1 0.6
2014-Oct-23 22:33N 33°44' W 118°12'1 1.0
2014-Oct-23 21:34N 33°43' W 118°12'1 0.7
2014-Oct-23 20:34N 33°44' W 118°11'0 0.0
2014-Oct-23 19:34N 33°44' W 118°11'2 1.6
2014-Oct-23 18:33N 33°44' W 118°13'2 1.0
2014-Oct-23 16:25N 33°44' W 118°16'0 0.0
2014-Oct-23 15:34N 33°44' W 118°16'1 0.7
2014-Oct-23 14:33N 33°43' W 118°16'3 2.7
2014-Oct-23 13:33N 33°46' W 118°15'0 0.0
2014-Oct-23 12:34N 33°46' W 118°15'0 0.0
2014-Oct-23 11:33N 33°46' W 118°15'0 0.0
2014-Oct-23 10:33N 33°46' W 118°15'0 0.0
2014-Oct-23 09:34N 33°46' W 118°15'3 2.8
2014-Oct-23 08:33N 33°43' W 118°14'3 3.5
2014-Oct-23 07:34N 33°44' W 118°10'4 3.3
2014-Oct-23 06:30N 33°43' W 118°14'2 1.6
2014-Oct-23 05:32N 33°44' W 118°16'0 0.2
2014-Oct-23 04:33N 33°44' W 118°16'0 0.0
2014-Oct-23 03:33N 33°44' W 118°16'0 0.0
2014-Oct-23 02:33N 33°44' W 118°16'0 0.0
2014-Oct-23 01:34N 33°44' W 118°16'0 0.0
2014-Oct-23 00:34N 33°44' W 118°16'0 0.0
2014-Oct-22 23:34N 33°44' W 118°16'0 0.0
2014-Oct-22 22:34N 33°44' W 118°16'0 0.0
2014-Oct-22 21:34N 33°44' W 118°16'0 0.0
2014-Oct-22 20:34N 33°44' W 118°16'0 0.0
2014-Oct-22 19:34N 33°44' W 118°16'1 0.6
2014-Oct-22 18:30N 33°44' W 118°16'0 0.0
2014-Oct-22 17:31N 33°44' W 118°16'1 0.7
2014-Oct-22 16:30N 33°44' W 118°16'0 0.0
2014-Oct-22 15:32N 33°44' W 118°16'2 1.7
2014-Oct-22 14:33N 33°45' W 118°16'0 0.2
2014-Oct-22 13:33N 33°46' W 118°16'0 0.3
2014-Oct-22 12:33N 33°45' W 118°16'2 2.2
2014-Oct-22 11:31N 33°43' W 118°16'0 0.3
2014-Oct-22 10:33N 33°43' W 118°16'1 0.7
2014-Oct-22 09:33N 33°44' W 118°16'0 0.0
2014-Oct-22 08:28N 33°44' W 118°16'0 0.0
2014-Oct-22 07:29N 33°44' W 118°16'0 0.0
2014-Oct-22 06:33N 33°44' W 118°16'3 2.9
2014-Oct-22 05:33N 33°45' W 118°12'0 0.1
2014-Oct-22 04:34N 33°45' W 118°12'0 0.1
2014-Oct-22 03:33N 33°45' W 118°12'1 1.4
2014-Oct-22 02:33N 33°46' W 118°13'3 3.5
2014-Oct-22 01:34N 33°43' W 118°11'1 1.2
2014-Oct-22 00:34N 33°44' W 118°12'2 1.7
2014-Oct-21 23:33N 33°43' W 118°14'1 0.6
2014-Oct-21 22:32N 33°43' W 118°14'0 0.1
2014-Oct-21 21:33N 33°43' W 118°14'2 0.9
2014-Oct-21 19:33N 33°45' W 118°12'0 0.1
2014-Oct-21 18:33N 33°45' W 118°12'0 0.5
2014-Oct-21 17:34N 33°44' W 118°12'3 2.6
2014-Oct-21 16:27N 33°44' W 118°16'0 0.3
2014-Oct-21 15:29N 33°44' W 118°16'4 4.4
2014-Oct-21 14:33N 33°44' W 118°11'1 1.2
2014-Oct-21 13:28N 33°44' W 118°12'0 0.4
2014-Oct-21 12:34N 33°45' W 118°12'0 0.0
2014-Oct-21 11:33N 33°45' W 118°12'0 0.0
2014-Oct-21 10:34N 33°45' W 118°12'  
Track history (hours):
 
Tides and Currents Weather Stations Pressure Air Temp Water Temp Dewpoint Dewpoint Depression Visibility Wind Speed Wind Dir Waves Ship Positions

Tim Quigg

Owner: Harley Marine Services, Inc, Seattle, WA. More information available from US FCC via Universal Licensing System and Coast Guard Vessel Documentation Center.

Last reported at 2014-Oct-31 10:33 UTC. Time now 2014-Oct-31 10:51 UTC.
Position N 33°44' W 118°12'.

; draft 7.5 m.

Type: Tug. MMSI: 366926740.

Date/timePositionNaut miles runAvg speedWind from/ knotsBaromVisibWave heightAir tempDewpointWater temp
2014-Oct-31 10:33N 33°44' W 118°12'3 1.3
2014-Oct-31 08:26N 33°44' W 118°16'0 0.0
2014-Oct-31 07:26N 33°44' W 118°16'2 1.7
2014-Oct-31 06:32N 33°43' W 118°14'0 0.2
2014-Oct-31 04:25N 33°43' W 118°15'0 0.1
2014-Oct-31 01:27N 33°43' W 118°14'3 2.9
2014-Oct-31 00:34N 33°45' W 118°16'1 0.5
2014-Oct-30 23:33N 33°45' W 118°16'1 0.8
2014-Oct-30 22:33N 33°45' W 118°16'0 0.2
2014-Oct-30 21:33N 33°45' W 118°17'0 0.0
2014-Oct-30 20:33N 33°45' W 118°17'0 0.0
2014-Oct-30 19:33N 33°45' W 118°17'0 0.2
2014-Oct-30 18:34N 33°45' W 118°17'1 1.1
2014-Oct-30 17:33N 33°44' W 118°16'0 0.0
2014-Oct-30 16:33N 33°44' W 118°16'0 0.0
2014-Oct-30 15:33N 33°44' W 118°16'1 1.1
2014-Oct-30 14:33N 33°45' W 118°17'1 1.0
2014-Oct-30 13:33N 33°44' W 118°16'0 0.1
2014-Oct-30 12:33N 33°44' W 118°16'0 0.0
2014-Oct-30 11:33N 33°44' W 118°16'0 0.0
2014-Oct-30 10:33N 33°44' W 118°16'0 0.0
2014-Oct-30 09:33N 33°44' W 118°16'0 0.0
2014-Oct-30 08:33N 33°44' W 118°16'0 0.0
2014-Oct-30 07:30N 33°44' W 118°16'2 2.6
2014-Oct-30 06:34N 33°45' W 118°13'1 1.0
2014-Oct-30 05:33N 33°44' W 118°13'2 2.1
2014-Oct-30 04:31N 33°44' W 118°16'0 0.0
2014-Oct-30 03:33N 33°44' W 118°16'0 0.0
2014-Oct-30 02:33N 33°44' W 118°16'2 1.7
2014-Oct-30 01:33N 33°46' W 118°15'3 3.0
2014-Oct-30 00:33N 33°43' W 118°15'1 1.3
2014-Oct-29 23:31N 33°44' W 118°16'0 0.2
2014-Oct-29 21:33N 33°44' W 118°15'2 1.9
2014-Oct-29 20:33N 33°46' W 118°16'3 2.6
2014-Oct-29 19:33N 33°43' W 118°16'2 2.2
2014-Oct-29 18:33N 33°44' W 118°14'2 1.7
2014-Oct-29 17:33N 33°44' W 118°16'0 0.0
2014-Oct-29 16:29N 33°44' W 118°16'0 0.0
2014-Oct-29 15:26N 33°44' W 118°16'1 0.6
2014-Oct-29 14:34N 33°43' W 118°16'2 2.1
2014-Oct-29 13:33N 33°45' W 118°16'3 2.7
2014-Oct-29 12:33N 33°43' W 118°15'1 1.1
2014-Oct-29 11:33N 33°43' W 118°16'3 2.6
2014-Oct-29 10:33N 33°45' W 118°14'2 1.9
2014-Oct-29 09:33N 33°44' W 118°12'3 2.8
2014-Oct-29 08:29N 33°44' W 118°16'1 0.8
2014-Oct-29 07:33N 33°43' W 118°16'4 4.0
2014-Oct-29 06:33N 33°46' W 118°13'2 2.0
2014-Oct-29 05:33N 33°44' W 118°13'2 1.7
2014-Oct-29 04:18N 33°44' W 118°16'0 0.0
2014-Oct-29 03:33N 33°44' W 118°16'0 0.0
2014-Oct-29 02:33N 33°44' W 118°16'2 1.7
2014-Oct-29 01:33N 33°43' W 118°14'2 1.9
2014-Oct-29 00:24N 33°45' W 118°12'0 0.0
2014-Oct-28 23:32N 33°45' W 118°12'0 0.0
2014-Oct-28 22:33N 33°45' W 118°12'1 1.3
2014-Oct-28 21:33N 33°46' W 118°13'1 1.3
2014-Oct-28 20:33N 33°45' W 118°13'0 0.0
2014-Oct-28 19:33N 33°45' W 118°13'0 0.0
2014-Oct-28 18:33N 33°45' W 118°13'0 0.0
2014-Oct-28 17:33N 33°45' W 118°13'3 3.0
2014-Oct-28 16:33N 33°43' W 118°16'1 0.6
2014-Oct-28 15:12N 33°44' W 118°16'0 0.0
2014-Oct-28 14:33N 33°44' W 118°16'0 0.3
2014-Oct-28 13:33N 33°44' W 118°16'2 2.1
2014-Oct-28 12:33N 33°46' W 118°17'3 3.2
2014-Oct-28 11:33N 33°43' W 118°15'3 2.4
2014-Oct-28 10:18N 33°45' W 118°12'3 3.1
2014-Oct-28 09:20N 33°44' W 118°16'2 2.3
2014-Oct-28 08:31N 33°43' W 118°13'3 2.8
2014-Oct-28 07:33N 33°46' W 118°13'0 0.0
2014-Oct-28 06:33N 33°46' W 118°13'0 0.4
2014-Oct-28 05:33N 33°46' W 118°13'3 2.4
2014-Oct-28 04:20N 33°44' W 118°16'0 0.0
2014-Oct-28 03:29N 33°44' W 118°16'0 0.0
2014-Oct-28 02:32N 33°44' W 118°16'2 2.3
2014-Oct-28 01:33N 33°44' W 118°13'2 2.0
2014-Oct-28 00:25N 33°44' W 118°16'0 0.0
2014-Oct-27 23:13N 33°44' W 118°16'2 1.0
2014-Oct-27 21:33N 33°43' W 118°14'2 1.9
2014-Oct-27 20:33N 33°45' W 118°13'3 2.8
2014-Oct-27 19:33N 33°44' W 118°16'0 0.0
2014-Oct-27 18:33N 33°44' W 118°16'1 0.9
2014-Oct-27 17:28N 33°45' W 118°16'1 0.9
2014-Oct-27 16:32N 33°44' W 118°16'5 5.1
2014-Oct-27 15:33N 33°44' W 118°10'4 3.7
2014-Oct-27 14:34N 33°44' W 118°06'3 2.6
2014-Oct-27 13:33N 33°44' W 118°09'2 1.7
2014-Oct-27 12:33N 33°44' W 118°11'0 0.0
2014-Oct-27 11:33N 33°44' W 118°11'3 2.8
2014-Oct-27 10:33N 33°46' W 118°13'1 1.2
2014-Oct-27 09:33N 33°46' W 118°15'0 0.4
2014-Oct-27 08:33N 33°46' W 118°15'3 2.5
2014-Oct-27 07:22N 33°43' W 118°15'3 1.9
2014-Oct-27 05:33N 33°46' W 118°13'0 0.2
2014-Oct-27 04:34N 33°46' W 118°13'3 2.9
2014-Oct-27 03:33N 33°44' W 118°16'2 1.6
2014-Oct-27 02:33N 33°45' W 118°16'3 2.6
2014-Oct-27 01:33N 33°43' W 118°15'3 2.8
2014-Oct-27 00:33N 33°46' W 118°16'0 0.3
2014-Oct-26 23:33N 33°45' W 118°16'1 1.5
2014-Oct-26 22:33N 33°44' W 118°16'2 1.7
2014-Oct-26 21:33N 33°45' W 118°16'0 0.2
2014-Oct-26 20:33N 33°46' W 118°16'0 0.0
2014-Oct-26 19:33N 33°46' W 118°16'0 0.0
2014-Oct-26 18:33N 33°46' W 118°16'1 1.2
2014-Oct-26 17:33N 33°45' W 118°16'3 0.9
2014-Oct-26 14:33N 33°44' W 118°14'2 1.9
2014-Oct-26 13:33N 33°44' W 118°12'0 0.0
2014-Oct-26 12:33N 33°44' W 118°12'0 0.0
2014-Oct-26 11:33N 33°44' W 118°12'0 0.0
2014-Oct-26 10:33N 33°44' W 118°12'0 0.4
2014-Oct-26 09:33N 33°45' W 118°12'0 0.5
2014-Oct-26 08:33N 33°44' W 118°12'0 0.0
2014-Oct-26 07:30N 33°44' W 118°12'0 0.0
2014-Oct-26 06:33N 33°44' W 118°12'3 2.7
2014-Oct-26 05:32N 33°43' W 118°14'2 2.3
2014-Oct-26 04:28N 33°45' W 118°17'1 1.5
2014-Oct-26 03:33N 33°46' W 118°15'3 3.0
2014-Oct-26 02:33N 33°43' W 118°15'1 1.4
2014-Oct-26 01:32N 33°44' W 118°16'0 0.0
2014-Oct-26 00:33N 33°44' W 118°16'0 0.2
2014-Oct-25 23:33N 33°44' W 118°16'0 0.0
2014-Oct-25 22:33N 33°44' W 118°16'3 2.8
2014-Oct-25 21:33N 33°44' W 118°12'0 0.4
2014-Oct-25 20:33N 33°44' W 118°12'1 0.8
2014-Oct-25 19:33N 33°43' W 118°13'2 2.3
2014-Oct-25 18:33N 33°44' W 118°16'0 0.0
2014-Oct-25 17:33N 33°44' W 118°16'0 0.0
2014-Oct-25 16:33N 33°44' W 118°16'2 2.0
2014-Oct-25 15:33N 33°46' W 118°16'3 2.7
2014-Oct-25 14:33N 33°43' W 118°16'2 2.5
2014-Oct-25 13:33N 33°45' W 118°14'3 2.6
2014-Oct-25 12:33N 33°44' W 118°11'2 1.6
2014-Oct-25 11:33N 33°45' W 118°12'1 1.2
2014-Oct-25 10:33N 33°44' W 118°12'0 0.0
2014-Oct-25 09:33N 33°44' W 118°12'0 0.0
2014-Oct-25 08:33N 33°44' W 118°12'0 0.0
2014-Oct-25 07:33N 33°44' W 118°12'0 0.1
2014-Oct-25 06:33N 33°44' W 118°12'1 0.9
2014-Oct-25 05:33N 33°45' W 118°12'3 2.6
2014-Oct-25 04:33N 33°43' W 118°14'1 1.5
2014-Oct-25 03:33N 33°44' W 118°16'0 0.0
2014-Oct-25 02:33N 33°44' W 118°16'0 0.0
2014-Oct-25 01:33N 33°44' W 118°16'0 0.0
2014-Oct-25 00:33N 33°44' W 118°16'0 0.0
2014-Oct-24 23:33N 33°44' W 118°16'2 2.2
2014-Oct-24 22:33N 33°44' W 118°13'1 1.1
2014-Oct-24 21:33N 33°45' W 118°13'4 3.7
2014-Oct-24 20:33N 33°45' W 118°17'2 1.8
2014-Oct-24 19:33N 33°44' W 118°16'4 3.5
2014-Oct-24 18:33N 33°40' W 118°14'5 4.5
2014-Oct-24 17:33N 33°45' W 118°12'3 3.0
2014-Oct-24 16:33N 33°44' W 118°16'0 0.2
2014-Oct-24 15:33N 33°44' W 118°16'2 2.3
2014-Oct-24 14:33N 33°45' W 118°13'0 0.4
2014-Oct-24 13:33N 33°44' W 118°13'2 2.3
2014-Oct-24 12:33N 33°43' W 118°15'1 1.0
2014-Oct-24 11:33N 33°43' W 118°16'1 1.2
2014-Oct-24 10:33N 33°44' W 118°17'2 1.7
2014-Oct-24 09:33N 33°46' W 118°15'2 2.4
2014-Oct-24 08:33N 33°45' W 118°12'1 1.2
2014-Oct-24 07:34N 33°44' W 118°13'2 2.2
2014-Oct-24 06:33N 33°44' W 118°16'0 0.0
2014-Oct-24 05:33N 33°44' W 118°16'0 0.0
2014-Oct-24 04:33N 33°44' W 118°16'0 0.0
2014-Oct-24 03:33N 33°44' W 118°16'0 0.0
2014-Oct-24 02:33N 33°44' W 118°16'1 1.3
2014-Oct-24 01:33N 33°43' W 118°15'3 2.8
2014-Oct-24 00:33N 33°44' W 118°12'0 0.0
2014-Oct-23 23:33N 33°44' W 118°12'1 0.6
2014-Oct-23 22:33N 33°44' W 118°12'1 1.0
2014-Oct-23 21:34N 33°43' W 118°12'1 0.7
2014-Oct-23 20:34N 33°44' W 118°11'0 0.0
2014-Oct-23 19:34N 33°44' W 118°11'2 1.6
2014-Oct-23 18:33N 33°44' W 118°13'2 1.0
2014-Oct-23 16:25N 33°44' W 118°16'0 0.0
2014-Oct-23 15:34N 33°44' W 118°16'1 0.7
2014-Oct-23 14:33N 33°43' W 118°16'3 2.7
2014-Oct-23 13:33N 33°46' W 118°15'0 0.0
2014-Oct-23 12:34N 33°46' W 118°15'0 0.0
2014-Oct-23 11:33N 33°46' W 118°15'0 0.0
2014-Oct-23 10:33N 33°46' W 118°15'0 0.0
2014-Oct-23 09:34N 33°46' W 118°15'3 2.8
2014-Oct-23 08:33N 33°43' W 118°14'3 3.5
2014-Oct-23 07:34N 33°44' W 118°10'4 3.3
2014-Oct-23 06:30N 33°43' W 118°14'2 1.6
2014-Oct-23 05:32N 33°44' W 118°16'0 0.2
2014-Oct-23 04:33N 33°44' W 118°16'0 0.0
2014-Oct-23 03:33N 33°44' W 118°16'0 0.0
2014-Oct-23 02:33N 33°44' W 118°16'0 0.0
2014-Oct-23 01:34N 33°44' W 118°16'0 0.0
2014-Oct-23 00:34N 33°44' W 118°16'0 0.0
2014-Oct-22 23:34N 33°44' W 118°16'0 0.0
2014-Oct-22 22:34N 33°44' W 118°16'0 0.0
2014-Oct-22 21:34N 33°44' W 118°16'0 0.0
2014-Oct-22 20:34N 33°44' W 118°16'0 0.0
2014-Oct-22 19:34N 33°44' W 118°16'1 0.6
2014-Oct-22 18:30N 33°44' W 118°16'0 0.0
2014-Oct-22 17:31N 33°44' W 118°16'1 0.7
2014-Oct-22 16:30N 33°44' W 118°16'0 0.0
2014-Oct-22 15:32N 33°44' W 118°16'2 1.7
2014-Oct-22 14:33N 33°45' W 118°16'0 0.2
2014-Oct-22 13:33N 33°46' W 118°16'0 0.3
2014-Oct-22 12:33N 33°45' W 118°16'2 2.2
2014-Oct-22 11:31N 33°43' W 118°16'0 0.3
2014-Oct-22 10:33N 33°43' W 118°16'1 0.7
2014-Oct-22 09:33N 33°44' W 118°16'0 0.0
2014-Oct-22 08:28N 33°44' W 118°16'0 0.0
2014-Oct-22 07:29N 33°44' W 118°16'0 0.0
2014-Oct-22 06:33N 33°44' W 118°16'3 2.9
2014-Oct-22 05:33N 33°45' W 118°12'0 0.1
2014-Oct-22 04:34N 33°45' W 118°12'0 0.1
2014-Oct-22 03:33N 33°45' W 118°12'1 1.4
2014-Oct-22 02:33N 33°46' W 118°13'3 3.5
2014-Oct-22 01:34N 33°43' W 118°11'1 1.2
2014-Oct-22 00:34N 33°44' W 118°12'2 1.7
2014-Oct-21 23:33N 33°43' W 118°14'1 0.6
2014-Oct-21 22:32N 33°43' W 118°14'0 0.1
2014-Oct-21 21:33N 33°43' W 118°14'2 0.9
2014-Oct-21 19:33N 33°45' W 118°12'0 0.1
2014-Oct-21 18:33N 33°45' W 118°12'0 0.5
2014-Oct-21 17:34N 33°44' W 118°12'3 2.6
2014-Oct-21 16:27N 33°44' W 118°16'0 0.3
2014-Oct-21 15:29N 33°44' W 118°16'4 4.4
2014-Oct-21 14:33N 33°44' W 118°11'1 1.2
2014-Oct-21 13:28N 33°44' W 118°12'0 0.4
2014-Oct-21 12:34N 33°45' W 118°12'0 0.0
2014-Oct-21 11:33N 33°45' W 118°12'0 0.0
2014-Oct-21 10:34N 33°45' W 118°12'  

Dump ship's entire track history